sensor_id;sensor_type;location;lat;lon;timestamp;P1;durP1;ratioP1;P2;durP2;ratioP2
24216;SDS011;12356;49.386;8.688;2022-11-23T00:03:51;6.60;;;1.90;;
24216;SDS011;12356;49.386;8.688;2022-11-23T00:06:24;4.70;;;1.65;;
24216;SDS011;12356;49.386;8.688;2022-11-23T00:08:55;6.20;;;1.73;;
24216;SDS011;12356;49.386;8.688;2022-11-23T00:11:27;9.68;;;2.30;;
24216;SDS011;12356;49.386;8.688;2022-11-23T00:13:58;6.60;;;1.92;;
24216;SDS011;12356;49.386;8.688;2022-11-23T00:16:29;7.47;;;2.00;;
24216;SDS011;12356;49.386;8.688;2022-11-23T00:19:00;5.10;;;1.70;;
24216;SDS011;12356;49.386;8.688;2022-11-23T00:21:31;6.03;;;1.80;;
24216;SDS011;12356;49.386;8.688;2022-11-23T00:24:02;4.75;;;1.77;;
24216;SDS011;12356;49.386;8.688;2022-11-23T00:26:33;5.70;;;1.80;;
24216;SDS011;12356;49.386;8.688;2022-11-23T00:29:04;4.95;;;1.70;;
24216;SDS011;12356;49.386;8.688;2022-11-23T00:31:34;7.43;;;1.80;;
24216;SDS011;12356;49.386;8.688;2022-11-23T00:34:05;6.88;;;1.98;;
24216;SDS011;12356;49.386;8.688;2022-11-23T00:36:36;5.50;;;1.70;;
24216;SDS011;12356;49.386;8.688;2022-11-23T00:39:06;4.13;;;1.80;;
24216;SDS011;12356;49.386;8.688;2022-11-23T00:41:37;4.65;;;1.70;;
24216;SDS011;12356;49.386;8.688;2022-11-23T00:44:07;7.03;;;1.55;;
24216;SDS011;12356;49.386;8.688;2022-11-23T00:46:38;6.22;;;1.65;;
24216;SDS011;12356;49.386;8.688;2022-11-23T00:49:09;5.45;;;1.55;;
24216;SDS011;12356;49.386;8.688;2022-11-23T00:51:39;7.95;;;1.67;;
24216;SDS011;12356;49.386;8.688;2022-11-23T00:54:10;4.53;;;1.60;;
24216;SDS011;12356;49.386;8.688;2022-11-23T00:56:42;4.53;;;1.42;;
24216;SDS011;12356;49.386;8.688;2022-11-23T00:59:12;4.45;;;1.65;;
24216;SDS011;12356;49.386;8.688;2022-11-23T01:01:43;6.88;;;1.60;;
24216;SDS011;12356;49.386;8.688;2022-11-23T01:07:13;9.82;;;1.77;;
24216;SDS011;12356;49.386;8.688;2022-11-23T01:09:43;6.18;;;1.58;;
24216;SDS011;12356;49.386;8.688;2022-11-23T01:12:14;9.25;;;1.50;;
24216;SDS011;12356;49.386;8.688;2022-11-23T01:14:44;5.60;;;1.85;;
24216;SDS011;12356;49.386;8.688;2022-11-23T01:17:15;5.03;;;1.52;;
24216;SDS011;12356;49.386;8.688;2022-11-23T01:19:46;6.65;;;1.83;;
24216;SDS011;12356;49.386;8.688;2022-11-23T01:22:16;4.93;;;1.60;;
24216;SDS011;12356;49.386;8.688;2022-11-23T01:24:49;4.78;;;1.50;;
24216;SDS011;12356;49.386;8.688;2022-11-23T01:27:19;4.55;;;1.67;;
24216;SDS011;12356;49.386;8.688;2022-11-23T01:29:50;5.97;;;1.50;;
24216;SDS011;12356;49.386;8.688;2022-11-23T01:32:21;7.28;;;1.52;;
24216;SDS011;12356;49.386;8.688;2022-11-23T01:34:51;5.13;;;2.00;;
24216;SDS011;12356;49.386;8.688;2022-11-23T01:37:22;6.68;;;1.73;;
24216;SDS011;12356;49.386;8.688;2022-11-23T01:39:52;4.15;;;1.50;;
24216;SDS011;12356;49.386;8.688;2022-11-23T01:42:36;5.43;;;1.73;;
24216;SDS011;12356;49.386;8.688;2022-11-23T01:48:15;4.88;;;1.35;;
24216;SDS011;12356;49.386;8.688;2022-11-23T01:50:49;3.53;;;1.40;;
24216;SDS011;12356;49.386;8.688;2022-11-23T01:53:21;6.43;;;1.50;;
24216;SDS011;12356;49.386;8.688;2022-11-23T01:55:52;6.65;;;2.20;;
24216;SDS011;12356;49.386;8.688;2022-11-23T01:58:27;6.15;;;1.60;;
24216;SDS011;12356;49.386;8.688;2022-11-23T02:01:00;3.25;;;1.40;;
24216;SDS011;12356;49.386;8.688;2022-11-23T02:03:32;4.07;;;1.73;;
24216;SDS011;12356;49.386;8.688;2022-11-23T02:06:07;6.47;;;1.75;;
24216;SDS011;12356;49.386;8.688;2022-11-23T02:08:42;4.72;;;1.77;;
24216;SDS011;12356;49.386;8.688;2022-11-23T02:11:13;3.90;;;1.30;;
24216;SDS011;12356;49.386;8.688;2022-11-23T02:13:46;4.03;;;1.33;;
24216;SDS011;12356;49.386;8.688;2022-11-23T02:16:18;6.85;;;1.52;;
24216;SDS011;12356;49.386;8.688;2022-11-23T02:18:49;3.85;;;1.33;;
24216;SDS011;12356;49.386;8.688;2022-11-23T02:21:21;4.85;;;1.38;;
24216;SDS011;12356;49.386;8.688;2022-11-23T02:26:39;8.55;;;1.73;;
24216;SDS011;12356;49.386;8.688;2022-11-23T02:29:11;3.08;;;1.35;;
24216;SDS011;12356;49.386;8.688;2022-11-23T02:31:52;5.53;;;1.70;;
24216;SDS011;12356;49.386;8.688;2022-11-23T02:34:23;6.30;;;1.55;;
24216;SDS011;12356;49.386;8.688;2022-11-23T02:36:54;4.40;;;1.60;;
24216;SDS011;12356;49.386;8.688;2022-11-23T02:42:02;4.03;;;1.50;;
24216;SDS011;12356;49.386;8.688;2022-11-23T02:47:33;6.65;;;1.55;;
24216;SDS011;12356;49.386;8.688;2022-11-23T02:50:04;3.60;;;1.38;;
24216;SDS011;12356;49.386;8.688;2022-11-23T02:52:35;4.68;;;1.40;;
24216;SDS011;12356;49.386;8.688;2022-11-23T02:55:05;3.72;;;1.25;;
24216;SDS011;12356;49.386;8.688;2022-11-23T02:57:36;4.13;;;1.10;;
24216;SDS011;12356;49.386;8.688;2022-11-23T03:00:07;5.88;;;1.63;;
24216;SDS011;12356;49.386;8.688;2022-11-23T03:02:38;5.45;;;1.38;;
24216;SDS011;12356;49.386;8.688;2022-11-23T03:05:09;4.80;;;1.17;;
24216;SDS011;12356;49.386;8.688;2022-11-23T03:07:39;6.97;;;1.40;;
24216;SDS011;12356;49.386;8.688;2022-11-23T03:10:10;4.47;;;1.40;;
24216;SDS011;12356;49.386;8.688;2022-11-23T03:12:41;3.50;;;1.17;;
24216;SDS011;12356;49.386;8.688;2022-11-23T03:15:12;3.45;;;1.15;;
24216;SDS011;12356;49.386;8.688;2022-11-23T03:17:43;4.88;;;1.10;;
24216;SDS011;12356;49.386;8.688;2022-11-23T03:20:13;4.18;;;1.20;;
24216;SDS011;12356;49.386;8.688;2022-11-23T03:22:44;7.78;;;1.48;;
24216;SDS011;12356;49.386;8.688;2022-11-23T03:25:15;4.68;;;1.30;;
24216;SDS011;12356;49.386;8.688;2022-11-23T03:27:46;5.10;;;1.50;;
24216;SDS011;12356;49.386;8.688;2022-11-23T03:30:16;4.22;;;1.30;;
24216;SDS011;12356;49.386;8.688;2022-11-23T03:32:47;4.43;;;1.35;;
24216;SDS011;12356;49.386;8.688;2022-11-23T03:35:18;4.50;;;1.40;;
24216;SDS011;12356;49.386;8.688;2022-11-23T03:37:48;4.93;;;1.50;;
24216;SDS011;12356;49.386;8.688;2022-11-23T03:40:19;6.15;;;1.45;;
24216;SDS011;12356;49.386;8.688;2022-11-23T03:42:50;3.92;;;1.30;;
24216;SDS011;12356;49.386;8.688;2022-11-23T03:45:20;4.30;;;1.40;;
24216;SDS011;12356;49.386;8.688;2022-11-23T03:47:51;3.83;;;1.30;;
24216;SDS011;12356;49.386;8.688;2022-11-23T03:50:22;5.43;;;1.50;;
24216;SDS011;12356;49.386;8.688;2022-11-23T03:52:52;3.75;;;1.30;;
24216;SDS011;12356;49.386;8.688;2022-11-23T03:55:23;7.75;;;1.40;;
24216;SDS011;12356;49.386;8.688;2022-11-23T03:57:54;4.47;;;1.50;;
24216;SDS011;12356;49.386;8.688;2022-11-23T04:00:29;3.72;;;1.40;;
24216;SDS011;12356;49.386;8.688;2022-11-23T04:03:00;5.73;;;1.27;;
24216;SDS011;12356;49.386;8.688;2022-11-23T04:05:31;4.68;;;1.40;;
24216;SDS011;12356;49.386;8.688;2022-11-23T04:08:01;3.08;;;1.30;;
24216;SDS011;12356;49.386;8.688;2022-11-23T04:10:32;6.20;;;1.40;;
24216;SDS011;12356;49.386;8.688;2022-11-23T04:13:02;4.88;;;1.30;;
24216;SDS011;12356;49.386;8.688;2022-11-23T04:15:33;5.68;;;1.50;;
24216;SDS011;12356;49.386;8.688;2022-11-23T04:18:04;3.50;;;1.30;;
24216;SDS011;12356;49.386;8.688;2022-11-23T04:20:34;3.15;;;1.10;;
24216;SDS011;12356;49.386;8.688;2022-11-23T04:23:05;5.93;;;1.30;;
24216;SDS011;12356;49.386;8.688;2022-11-23T04:25:36;6.40;;;1.65;;
24216;SDS011;12356;49.386;8.688;2022-11-23T04:28:06;4.38;;;1.30;;
24216;SDS011;12356;49.386;8.688;2022-11-23T04:30:37;3.38;;;1.30;;
24216;SDS011;12356;49.386;8.688;2022-11-23T04:33:08;3.47;;;1.40;;
24216;SDS011;12356;49.386;8.688;2022-11-23T04:35:38;6.63;;;1.30;;
24216;SDS011;12356;49.386;8.688;2022-11-23T04:38:09;3.63;;;1.35;;
24216;SDS011;12356;49.386;8.688;2022-11-23T04:40:40;2.85;;;1.08;;
24216;SDS011;12356;49.386;8.688;2022-11-23T04:43:10;5.85;;;1.38;;
24216;SDS011;12356;49.386;8.688;2022-11-23T04:45:41;4.82;;;1.20;;
24216;SDS011;12356;49.386;8.688;2022-11-23T04:48:11;4.82;;;1.20;;
24216;SDS011;12356;49.386;8.688;2022-11-23T04:50:42;8.65;;;1.30;;
24216;SDS011;12356;49.386;8.688;2022-11-23T04:53:13;3.83;;;1.30;;
24216;SDS011;12356;49.386;8.688;2022-11-23T04:55:44;3.50;;;1.33;;
24216;SDS011;12356;49.386;8.688;2022-11-23T04:58:16;5.80;;;1.33;;
24216;SDS011;12356;49.386;8.688;2022-11-23T05:00:46;5.45;;;1.25;;
24216;SDS011;12356;49.386;8.688;2022-11-23T05:03:17;4.28;;;1.30;;
24216;SDS011;12356;49.386;8.688;2022-11-23T05:05:48;5.13;;;1.27;;
24216;SDS011;12356;49.386;8.688;2022-11-23T05:08:18;3.42;;;1.23;;
24216;SDS011;12356;49.386;8.688;2022-11-23T05:10:49;5.93;;;1.40;;
24216;SDS011;12356;49.386;8.688;2022-11-23T05:13:20;5.40;;;1.42;;
24216;SDS011;12356;49.386;8.688;2022-11-23T05:15:50;4.00;;;1.27;;
24216;SDS011;12356;49.386;8.688;2022-11-23T05:18:21;7.20;;;1.27;;
24216;SDS011;12356;49.386;8.688;2022-11-23T05:20:51;5.03;;;1.23;;
24216;SDS011;12356;49.386;8.688;2022-11-23T05:23:22;2.97;;;1.30;;
24216;SDS011;12356;49.386;8.688;2022-11-23T05:25:53;4.72;;;1.40;;
24216;SDS011;12356;49.386;8.688;2022-11-23T05:28:23;4.20;;;1.40;;
24216;SDS011;12356;49.386;8.688;2022-11-23T05:30:54;5.28;;;1.33;;
24216;SDS011;12356;49.386;8.688;2022-11-23T05:33:25;5.18;;;1.42;;
24216;SDS011;12356;49.386;8.688;2022-11-23T05:35:55;4.95;;;1.40;;
24216;SDS011;12356;49.386;8.688;2022-11-23T05:38:26;6.28;;;1.42;;
24216;SDS011;12356;49.386;8.688;2022-11-23T05:40:57;8.38;;;1.30;;
24216;SDS011;12356;49.386;8.688;2022-11-23T05:43:28;7.05;;;1.58;;
24216;SDS011;12356;49.386;8.688;2022-11-23T05:46:00;5.20;;;1.33;;
24216;SDS011;12356;49.386;8.688;2022-11-23T05:48:31;4.32;;;1.48;;
24216;SDS011;12356;49.386;8.688;2022-11-23T05:51:02;5.97;;;1.23;;
24216;SDS011;12356;49.386;8.688;2022-11-23T05:53:32;4.13;;;1.30;;
24216;SDS011;12356;49.386;8.688;2022-11-23T05:56:03;5.00;;;1.40;;
24216;SDS011;12356;49.386;8.688;2022-11-23T05:58:34;7.95;;;1.45;;
24216;SDS011;12356;49.386;8.688;2022-11-23T06:01:05;3.92;;;1.27;;
24216;SDS011;12356;49.386;8.688;2022-11-23T06:03:35;2.83;;;1.17;;
24216;SDS011;12356;49.386;8.688;2022-11-23T06:06:07;7.68;;;1.40;;
24216;SDS011;12356;49.386;8.688;2022-11-23T06:08:37;5.53;;;1.50;;
24216;SDS011;12356;49.386;8.688;2022-11-23T06:11:08;6.43;;;1.60;;
24216;SDS011;12356;49.386;8.688;2022-11-23T06:13:39;5.25;;;1.67;;
24216;SDS011;12356;49.386;8.688;2022-11-23T06:16:09;4.93;;;2.10;;
24216;SDS011;12356;49.386;8.688;2022-11-23T06:18:40;5.25;;;2.25;;
24216;SDS011;12356;49.386;8.688;2022-11-23T06:21:10;5.28;;;1.60;;
24216;SDS011;12356;49.386;8.688;2022-11-23T06:23:41;5.03;;;1.83;;
24216;SDS011;12356;49.386;8.688;2022-11-23T06:26:12;4.28;;;1.50;;
24216;SDS011;12356;49.386;8.688;2022-11-23T06:28:43;4.43;;;1.33;;
24216;SDS011;12356;49.386;8.688;2022-11-23T06:31:13;5.80;;;1.60;;
24216;SDS011;12356;49.386;8.688;2022-11-23T06:33:44;4.13;;;1.35;;
24216;SDS011;12356;49.386;8.688;2022-11-23T06:36:15;3.97;;;1.10;;
24216;SDS011;12356;49.386;8.688;2022-11-23T06:38:45;4.78;;;1.40;;
24216;SDS011;12356;49.386;8.688;2022-11-23T06:41:16;6.15;;;1.52;;
24216;SDS011;12356;49.386;8.688;2022-11-23T06:43:46;3.58;;;1.50;;
24216;SDS011;12356;49.386;8.688;2022-11-23T06:46:17;6.95;;;1.73;;
24216;SDS011;12356;49.386;8.688;2022-11-23T06:48:48;6.80;;;1.45;;
24216;SDS011;12356;49.386;8.688;2022-11-23T06:51:19;3.90;;;1.30;;
24216;SDS011;12356;49.386;8.688;2022-11-23T06:53:49;6.30;;;1.60;;
24216;SDS011;12356;49.386;8.688;2022-11-23T06:56:20;5.00;;;1.50;;
24216;SDS011;12356;49.386;8.688;2022-11-23T06:58:50;4.35;;;1.27;;
24216;SDS011;12356;49.386;8.688;2022-11-23T07:01:21;6.10;;;1.42;;
24216;SDS011;12356;49.386;8.688;2022-11-23T07:03:52;4.72;;;1.33;;
24216;SDS011;12356;49.386;8.688;2022-11-23T07:06:22;3.25;;;1.10;;
24216;SDS011;12356;49.386;8.688;2022-11-23T07:08:54;4.00;;;1.20;;
24216;SDS011;12356;49.386;8.688;2022-11-23T07:11:24;6.15;;;1.35;;
24216;SDS011;12356;49.386;8.688;2022-11-23T07:13:55;4.57;;;1.50;;
24216;SDS011;12356;49.386;8.688;2022-11-23T07:16:26;6.35;;;1.50;;
24216;SDS011;12356;49.386;8.688;2022-11-23T07:18:56;5.32;;;1.35;;
24216;SDS011;12356;49.386;8.688;2022-11-23T07:21:27;6.25;;;1.35;;
24216;SDS011;12356;49.386;8.688;2022-11-23T07:23:58;7.53;;;1.50;;
24216;SDS011;12356;49.386;8.688;2022-11-23T07:26:28;7.63;;;1.85;;
24216;SDS011;12356;49.386;8.688;2022-11-23T07:28:59;5.97;;;1.70;;
24216;SDS011;12356;49.386;8.688;2022-11-23T07:31:30;4.72;;;1.52;;
24216;SDS011;12356;49.386;8.688;2022-11-23T07:34:01;7.05;;;1.13;;
24216;SDS011;12356;49.386;8.688;2022-11-23T07:36:31;6.07;;;1.50;;
24216;SDS011;12356;49.386;8.688;2022-11-23T07:39:02;4.47;;;1.42;;
24216;SDS011;12356;49.386;8.688;2022-11-23T07:41:33;5.97;;;1.58;;
24216;SDS011;12356;49.386;8.688;2022-11-23T07:44:04;4.25;;;1.52;;
24216;SDS011;12356;49.386;8.688;2022-11-23T07:46:34;5.93;;;1.60;;
24216;SDS011;12356;49.386;8.688;2022-11-23T07:49:05;9.05;;;2.00;;
24216;SDS011;12356;49.386;8.688;2022-11-23T07:51:36;4.97;;;1.70;;
24216;SDS011;12356;49.386;8.688;2022-11-23T07:54:07;6.95;;;1.33;;
24216;SDS011;12356;49.386;8.688;2022-11-23T07:56:37;5.80;;;1.73;;
24216;SDS011;12356;49.386;8.688;2022-11-23T07:59:08;6.90;;;1.60;;
24216;SDS011;12356;49.386;8.688;2022-11-23T08:01:39;8.10;;;1.90;;
24216;SDS011;12356;49.386;8.688;2022-11-23T08:04:09;9.02;;;1.73;;
24216;SDS011;12356;49.386;8.688;2022-11-23T08:06:40;7.60;;;1.70;;
24216;SDS011;12356;49.386;8.688;2022-11-23T08:09:10;9.02;;;1.50;;
24216;SDS011;12356;49.386;8.688;2022-11-23T08:11:41;6.28;;;1.50;;
24216;SDS011;12356;49.386;8.688;2022-11-23T08:14:12;6.28;;;1.42;;
24216;SDS011;12356;49.386;8.688;2022-11-23T08:16:42;6.25;;;1.20;;
24216;SDS011;12356;49.386;8.688;2022-11-23T08:19:13;4.88;;;1.30;;
24216;SDS011;12356;49.386;8.688;2022-11-23T08:21:44;5.95;;;1.17;;
24216;SDS011;12356;49.386;8.688;2022-11-23T08:24:14;6.53;;;1.30;;
24216;SDS011;12356;49.386;8.688;2022-11-23T08:26:45;5.90;;;1.23;;
24216;SDS011;12356;49.386;8.688;2022-11-23T08:29:16;4.13;;;1.20;;
24216;SDS011;12356;49.386;8.688;2022-11-23T08:31:46;8.43;;;1.60;;
24216;SDS011;12356;49.386;8.688;2022-11-23T08:34:17;6.10;;;1.20;;
24216;SDS011;12356;49.386;8.688;2022-11-23T08:36:48;5.95;;;1.67;;
24216;SDS011;12356;49.386;8.688;2022-11-23T08:39:18;4.35;;;1.42;;
24216;SDS011;12356;49.386;8.688;2022-11-23T08:41:49;4.82;;;1.10;;
24216;SDS011;12356;49.386;8.688;2022-11-23T08:44:20;4.50;;;1.40;;
24216;SDS011;12356;49.386;8.688;2022-11-23T08:46:50;4.43;;;1.40;;
24216;SDS011;12356;49.386;8.688;2022-11-23T08:49:21;4.85;;;1.30;;
24216;SDS011;12356;49.386;8.688;2022-11-23T08:51:52;5.40;;;1.70;;
24216;SDS011;12356;49.386;8.688;2022-11-23T08:54:23;7.70;;;1.75;;
24216;SDS011;12356;49.386;8.688;2022-11-23T08:56:54;5.50;;;1.23;;
24216;SDS011;12356;49.386;8.688;2022-11-23T08:59:25;5.07;;;1.98;;
24216;SDS011;12356;49.386;8.688;2022-11-23T09:01:56;3.90;;;1.10;;
24216;SDS011;12356;49.386;8.688;2022-11-23T09:04:27;6.05;;;1.20;;
24216;SDS011;12356;49.386;8.688;2022-11-23T09:09:31;5.50;;;1.15;;
24216;SDS011;12356;49.386;8.688;2022-11-23T09:12:02;5.07;;;1.30;;
24216;SDS011;12356;49.386;8.688;2022-11-23T09:14:33;4.22;;;1.30;;
24216;SDS011;12356;49.386;8.688;2022-11-23T09:17:04;5.70;;;1.50;;
24216;SDS011;12356;49.386;8.688;2022-11-23T09:19:34;3.60;;;1.20;;
24216;SDS011;12356;49.386;8.688;2022-11-23T09:22:05;8.30;;;1.23;;
24216;SDS011;12356;49.386;8.688;2022-11-23T09:24:36;8.48;;;1.50;;
24216;SDS011;12356;49.386;8.688;2022-11-23T09:27:06;5.82;;;1.40;;
24216;SDS011;12356;49.386;8.688;2022-11-23T09:29:37;4.68;;;1.20;;
24216;SDS011;12356;49.386;8.688;2022-11-23T09:32:08;5.05;;;1.38;;
24216;SDS011;12356;49.386;8.688;2022-11-23T09:34:39;6.60;;;1.38;;
24216;SDS011;12356;49.386;8.688;2022-11-23T09:37:10;6.90;;;1.40;;
24216;SDS011;12356;49.386;8.688;2022-11-23T09:39:41;4.57;;;1.27;;
24216;SDS011;12356;49.386;8.688;2022-11-23T09:50:51;5.57;;;1.40;;
24216;SDS011;12356;49.386;8.688;2022-11-23T09:53:36;5.18;;;1.13;;
24216;SDS011;12356;49.386;8.688;2022-11-23T09:56:33;5.80;;;1.50;;
24216;SDS011;12356;49.386;8.688;2022-11-23T09:59:13;6.38;;;1.33;;
24216;SDS011;12356;49.386;8.688;2022-11-23T10:01:51;6.90;;;1.35;;
24216;SDS011;12356;49.386;8.688;2022-11-23T10:04:22;5.28;;;1.42;;
24216;SDS011;12356;49.386;8.688;2022-11-23T10:06:55;6.75;;;1.23;;
24216;SDS011;12356;49.386;8.688;2022-11-23T10:18:16;4.68;;;1.30;;
24216;SDS011;12356;49.386;8.688;2022-11-23T10:23:34;8.70;;;2.20;;
24216;SDS011;12356;49.386;8.688;2022-11-23T10:26:09;12.63;;;1.70;;
24216;SDS011;12356;49.386;8.688;2022-11-23T10:28:45;6.43;;;1.30;;
24216;SDS011;12356;49.386;8.688;2022-11-23T10:31:17;9.23;;;1.60;;
24216;SDS011;12356;49.386;8.688;2022-11-23T10:36:48;4.88;;;1.17;;
24216;SDS011;12356;49.386;8.688;2022-11-23T10:39:20;6.60;;;1.17;;
24216;SDS011;12356;49.386;8.688;2022-11-23T10:41:53;4.78;;;1.30;;
24216;SDS011;12356;49.386;8.688;2022-11-23T10:44:30;4.78;;;1.30;;
24216;SDS011;12356;49.386;8.688;2022-11-23T10:47:06;5.35;;;1.40;;
24216;SDS011;12356;49.386;8.688;2022-11-23T10:49:37;6.35;;;1.20;;
24216;SDS011;12356;49.386;8.688;2022-11-23T10:54:59;5.68;;;1.48;;
24216;SDS011;12356;49.386;8.688;2022-11-23T10:57:40;5.82;;;1.30;;
24216;SDS011;12356;49.386;8.688;2022-11-23T11:00:14;6.07;;;1.60;;
24216;SDS011;12356;49.386;8.688;2022-11-23T11:02:50;7.60;;;1.38;;
24216;SDS011;12356;49.386;8.688;2022-11-23T11:05:28;7.72;;;2.20;;
24216;SDS011;12356;49.386;8.688;2022-11-23T11:08:23;3.92;;;1.65;;
24216;SDS011;12356;49.386;8.688;2022-11-23T11:13:42;4.32;;;1.40;;
24216;SDS011;12356;49.386;8.688;2022-11-23T11:16:21;6.88;;;1.60;;
24216;SDS011;12356;49.386;8.688;2022-11-23T11:19:19;6.40;;;1.60;;
24216;SDS011;12356;49.386;8.688;2022-11-23T11:22:01;5.03;;;1.58;;
24216;SDS011;12356;49.386;8.688;2022-11-23T11:24:53;4.68;;;1.60;;
24216;SDS011;12356;49.386;8.688;2022-11-23T11:27:25;4.07;;;1.60;;
24216;SDS011;12356;49.386;8.688;2022-11-23T11:30:03;6.30;;;1.60;;
24216;SDS011;12356;49.386;8.688;2022-11-23T11:32:39;6.90;;;1.55;;
24216;SDS011;12356;49.386;8.688;2022-11-23T11:35:25;10.43;;;1.80;;
24216;SDS011;12356;49.386;8.688;2022-11-23T11:41:05;3.60;;;1.48;;
24216;SDS011;12356;49.386;8.688;2022-11-23T11:43:43;5.72;;;1.50;;
24216;SDS011;12356;49.386;8.688;2022-11-23T11:46:21;7.22;;;1.55;;
24216;SDS011;12356;49.386;8.688;2022-11-23T11:49:02;4.35;;;1.52;;
24216;SDS011;12356;49.386;8.688;2022-11-23T11:52:04;5.72;;;1.60;;
24216;SDS011;12356;49.386;8.688;2022-11-23T12:00:06;4.85;;;1.60;;
24216;SDS011;12356;49.386;8.688;2022-11-23T12:05:49;6.20;;;1.55;;
24216;SDS011;12356;49.386;8.688;2022-11-23T12:11:01;5.35;;;2.03;;
24216;SDS011;12356;49.386;8.688;2022-11-23T12:13:34;7.78;;;2.03;;
24216;SDS011;12356;49.386;8.688;2022-11-23T12:16:19;7.75;;;2.30;;
24216;SDS011;12356;49.386;8.688;2022-11-23T12:30:40;7.18;;;2.13;;
24216;SDS011;12356;49.386;8.688;2022-11-23T12:37:22;8.40;;;1.52;;
24216;SDS011;12356;49.386;8.688;2022-11-23T12:59:43;6.90;;;1.35;;
24216;SDS011;12356;49.386;8.688;2022-11-23T13:08:23;5.68;;;1.35;;
24216;SDS011;12356;49.386;8.688;2022-11-23T13:22:35;4.00;;;1.00;;
24216;SDS011;12356;49.386;8.688;2022-11-23T13:27:43;3.47;;;0.80;;
24216;SDS011;12356;49.386;8.688;2022-11-23T13:35:47;4.90;;;0.88;;
24216;SDS011;12356;49.386;8.688;2022-11-23T13:38:27;3.75;;;0.90;;
24216;SDS011;12356;49.386;8.688;2022-11-23T13:42:07;2.03;;;0.80;;
24216;SDS011;12356;49.386;8.688;2022-11-23T13:44:24;1.67;;;0.70;;
24216;SDS011;12356;49.386;8.688;2022-11-23T13:47:01;2.55;;;0.80;;
24216;SDS011;12356;49.386;8.688;2022-11-23T13:57:32;2.55;;;0.73;;
24216;SDS011;12356;49.386;8.688;2022-11-23T14:09:33;4.63;;;0.68;;
24216;SDS011;12356;49.386;8.688;2022-11-23T14:28:38;7.25;;;1.30;;
24216;SDS011;12356;49.386;8.688;2022-11-23T14:39:43;2.05;;;0.95;;
24216;SDS011;12356;49.386;8.688;2022-11-23T14:42:25;4.57;;;0.85;;
24216;SDS011;12356;49.386;8.688;2022-11-23T14:45:00;3.13;;;1.13;;
24216;SDS011;12356;49.386;8.688;2022-11-23T14:47:33;5.22;;;1.33;;
24216;SDS011;12356;49.386;8.688;2022-11-23T14:50:04;3.30;;;1.05;;
24216;SDS011;12356;49.386;8.688;2022-11-23T14:52:35;4.32;;;1.02;;
24216;SDS011;12356;49.386;8.688;2022-11-23T14:55:07;2.25;;;1.30;;
24216;SDS011;12356;49.386;8.688;2022-11-23T14:58:00;2.27;;;1.30;;
24216;SDS011;12356;49.386;8.688;2022-11-23T15:03:12;5.57;;;1.40;;
24216;SDS011;12356;49.386;8.688;2022-11-23T15:05:50;4.05;;;1.40;;
24216;SDS011;12356;49.386;8.688;2022-11-23T15:08:24;2.92;;;1.13;;
24216;SDS011;12356;49.386;8.688;2022-11-23T15:11:04;3.03;;;1.15;;
24216;SDS011;12356;49.386;8.688;2022-11-23T15:13:42;4.93;;;1.40;;
24216;SDS011;12356;49.386;8.688;2022-11-23T15:16:16;2.80;;;1.30;;
24216;SDS011;12356;49.386;8.688;2022-11-23T15:18:49;4.00;;;1.30;;
24216;SDS011;12356;49.386;8.688;2022-11-23T15:21:20;3.58;;;1.75;;
24216;SDS011;12356;49.386;8.688;2022-11-23T15:23:56;5.07;;;1.70;;
24216;SDS011;12356;49.386;8.688;2022-11-23T15:26:30;4.35;;;1.67;;
24216;SDS011;12356;49.386;8.688;2022-11-23T15:29:02;4.28;;;1.60;;
24216;SDS011;12356;49.386;8.688;2022-11-23T15:31:34;3.15;;;1.50;;
24216;SDS011;12356;49.386;8.688;2022-11-23T15:34:15;6.35;;;1.83;;
24216;SDS011;12356;49.386;8.688;2022-11-23T15:36:46;3.40;;;1.55;;
24216;SDS011;12356;49.386;8.688;2022-11-23T15:39:18;4.40;;;1.60;;
24216;SDS011;12356;49.386;8.688;2022-11-23T15:41:52;4.25;;;1.60;;
24216;SDS011;12356;49.386;8.688;2022-11-23T15:44:28;4.38;;;1.60;;
24216;SDS011;12356;49.386;8.688;2022-11-23T15:47:01;6.43;;;1.98;;
24216;SDS011;12356;49.386;8.688;2022-11-23T15:49:37;4.28;;;1.80;;
24216;SDS011;12356;49.386;8.688;2022-11-23T15:52:12;4.20;;;1.80;;
24216;SDS011;12356;49.386;8.688;2022-11-23T15:54:46;2.45;;;1.50;;
24216;SDS011;12356;49.386;8.688;2022-11-23T15:57:18;4.95;;;1.70;;
24216;SDS011;12356;49.386;8.688;2022-11-23T15:59:56;4.35;;;1.80;;
24216;SDS011;12356;49.386;8.688;2022-11-23T16:02:29;5.78;;;1.67;;
24216;SDS011;12356;49.386;8.688;2022-11-23T16:05:10;3.13;;;1.70;;
24216;SDS011;12356;49.386;8.688;2022-11-23T16:10:53;5.57;;;1.80;;
24216;SDS011;12356;49.386;8.688;2022-11-23T16:13:34;3.80;;;1.70;;
24216;SDS011;12356;49.386;8.688;2022-11-23T16:16:08;6.53;;;2.13;;
24216;SDS011;12356;49.386;8.688;2022-11-23T16:18:50;4.03;;;1.95;;
24216;SDS011;12356;49.386;8.688;2022-11-23T16:21:25;3.17;;;2.13;;
24216;SDS011;12356;49.386;8.688;2022-11-23T16:23:56;4.32;;;1.70;;
24216;SDS011;12356;49.386;8.688;2022-11-23T16:26:30;4.65;;;1.88;;
24216;SDS011;12356;49.386;8.688;2022-11-23T16:29:02;4.13;;;1.70;;
24216;SDS011;12356;49.386;8.688;2022-11-23T16:31:38;4.57;;;1.90;;
24216;SDS011;12356;49.386;8.688;2022-11-23T16:34:15;3.25;;;1.70;;
24216;SDS011;12356;49.386;8.688;2022-11-23T16:36:46;2.58;;;1.50;;
24216;SDS011;12356;49.386;8.688;2022-11-23T16:39:17;4.07;;;1.80;;
24216;SDS011;12356;49.386;8.688;2022-11-23T16:41:48;5.70;;;1.60;;
24216;SDS011;12356;49.386;8.688;2022-11-23T16:44:19;2.92;;;1.40;;
24216;SDS011;12356;49.386;8.688;2022-11-23T16:46:50;4.38;;;1.50;;
24216;SDS011;12356;49.386;8.688;2022-11-23T16:49:21;4.82;;;1.50;;
24216;SDS011;12356;49.386;8.688;2022-11-23T16:51:52;3.67;;;1.70;;
24216;SDS011;12356;49.386;8.688;2022-11-23T16:54:23;3.40;;;1.40;;
24216;SDS011;12356;49.386;8.688;2022-11-23T16:56:54;4.18;;;1.40;;
24216;SDS011;12356;49.386;8.688;2022-11-23T16:59:25;3.65;;;1.30;;
24216;SDS011;12356;49.386;8.688;2022-11-23T17:01:55;4.40;;;1.70;;
24216;SDS011;12356;49.386;8.688;2022-11-23T17:04:26;4.15;;;1.25;;
24216;SDS011;12356;49.386;8.688;2022-11-23T17:06:57;3.72;;;1.50;;
24216;SDS011;12356;49.386;8.688;2022-11-23T17:09:28;3.42;;;1.52;;
24216;SDS011;12356;49.386;8.688;2022-11-23T17:11:58;3.80;;;2.13;;
24216;SDS011;12356;49.386;8.688;2022-11-23T17:14:29;4.57;;;1.90;;
24216;SDS011;12356;49.386;8.688;2022-11-23T17:17:08;2.97;;;1.90;;
24216;SDS011;12356;49.386;8.688;2022-11-23T17:19:40;4.35;;;1.98;;
24216;SDS011;12356;49.386;8.688;2022-11-23T17:22:11;3.88;;;1.90;;
24216;SDS011;12356;49.386;8.688;2022-11-23T17:24:41;4.63;;;1.85;;
24216;SDS011;12356;49.386;8.688;2022-11-23T17:27:16;3.80;;;1.58;;
24216;SDS011;12356;49.386;8.688;2022-11-23T17:29:59;7.55;;;2.00;;
24216;SDS011;12356;49.386;8.688;2022-11-23T17:32:31;3.35;;;2.05;;
24216;SDS011;12356;49.386;8.688;2022-11-23T17:35:02;5.22;;;2.35;;
24216;SDS011;12356;49.386;8.688;2022-11-23T17:37:33;5.40;;;2.70;;
24216;SDS011;12356;49.386;8.688;2022-11-23T17:40:04;5.70;;;2.83;;
24216;SDS011;12356;49.386;8.688;2022-11-23T17:42:35;8.57;;;2.88;;
24216;SDS011;12356;49.386;8.688;2022-11-23T17:45:05;4.93;;;2.85;;
24216;SDS011;12356;49.386;8.688;2022-11-23T17:47:36;9.25;;;4.57;;
24216;SDS011;12356;49.386;8.688;2022-11-23T17:50:10;10.00;;;5.97;;
24216;SDS011;12356;49.386;8.688;2022-11-23T17:52:46;9.75;;;5.50;;
24216;SDS011;12356;49.386;8.688;2022-11-23T17:55:17;10.13;;;4.93;;
24216;SDS011;12356;49.386;8.688;2022-11-23T17:57:47;13.25;;;6.03;;
24216;SDS011;12356;49.386;8.688;2022-11-23T18:00:19;7.07;;;4.68;;
24216;SDS011;12356;49.386;8.688;2022-11-23T18:02:51;8.57;;;4.28;;
24216;SDS011;12356;49.386;8.688;2022-11-23T18:05:22;11.23;;;5.45;;
24216;SDS011;12356;49.386;8.688;2022-11-23T18:07:52;7.85;;;4.70;;
24216;SDS011;12356;49.386;8.688;2022-11-23T18:10:23;9.50;;;4.68;;
24216;SDS011;12356;49.386;8.688;2022-11-23T18:12:54;7.55;;;4.38;;